sensor_id;sensor_type;location;lat;lon;timestamp;pressure;altitude;pressure_sealevel;temperature;humidity
6615;BME280;3343;42.896;23.912;2022-10-19T00:00:31;97102.06;;;14.09;50.77
6615;BME280;3343;42.896;23.912;2022-10-19T00:02:58;97105.13;;;13.78;51.70
6615;BME280;3343;42.896;23.912;2022-10-19T00:05:26;97105.13;;;14.06;50.59
6615;BME280;3343;42.896;23.912;2022-10-19T00:07:53;97114.00;;;14.32;49.94
6615;BME280;3343;42.896;23.912;2022-10-19T00:10:20;97103.06;;;14.42;48.51
6615;BME280;3343;42.896;23.912;2022-10-19T00:12:49;97099.94;;;14.32;49.48
6615;BME280;3343;42.896;23.912;2022-10-19T00:15:16;97094.09;;;13.74;50.76
6615;BME280;3343;42.896;23.912;2022-10-19T00:17:43;97100.25;;;13.81;50.96
6615;BME280;3343;42.896;23.912;2022-10-19T00:20:10;97100.63;;;14.06;49.89
6615;BME280;3343;42.896;23.912;2022-10-19T00:22:37;97090.91;;;13.85;50.21
6615;BME280;3343;42.896;23.912;2022-10-19T00:25:06;97086.91;;;13.61;51.05
6615;BME280;3343;42.896;23.912;2022-10-19T00:27:33;97094.97;;;13.25;52.52
6615;BME280;3343;42.896;23.912;2022-10-19T00:30:01;97094.50;;;13.99;50.30
6615;BME280;3343;42.896;23.912;2022-10-19T00:32:29;97090.22;;;13.98;49.36
6615;BME280;3343;42.896;23.912;2022-10-19T00:34:55;97079.22;;;13.38;50.89
6615;BME280;3343;42.896;23.912;2022-10-19T00:37:22;97073.97;;;12.81;53.37
6615;BME280;3343;42.896;23.912;2022-10-19T00:39:49;97071.31;;;13.17;52.43
6615;BME280;3343;42.896;23.912;2022-10-19T00:42:16;97062.75;;;12.58;54.47
6615;BME280;3343;42.896;23.912;2022-10-19T00:45:06;97063.69;;;13.29;52.66
6615;BME280;3343;42.896;23.912;2022-10-19T00:47:38;97054.34;;;12.90;53.21
6615;BME280;3343;42.896;23.912;2022-10-19T00:50:06;97050.50;;;12.93;53.35
6615;BME280;3343;42.896;23.912;2022-10-19T00:52:33;97055.41;;;12.74;53.17
6615;BME280;3343;42.896;23.912;2022-10-19T00:55:00;97043.47;;;13.00;52.69
6615;BME280;3343;42.896;23.912;2022-10-19T00:57:28;97047.38;;;12.83;53.52
6615;BME280;3343;42.896;23.912;2022-10-19T01:00:00;97036.97;;;13.17;52.17
6615;BME280;3343;42.896;23.912;2022-10-19T01:02:30;97037.34;;;12.99;52.60
6615;BME280;3343;42.896;23.912;2022-10-19T01:04:57;97029.44;;;12.99;52.54
6615;BME280;3343;42.896;23.912;2022-10-19T01:07:25;97037.50;;;13.13;52.16
6615;BME280;3343;42.896;23.912;2022-10-19T01:09:53;97031.91;;;13.01;51.87
6615;BME280;3343;42.896;23.912;2022-10-19T01:15:36;97028.06;;;13.03;52.87
6615;BME280;3343;42.896;23.912;2022-10-19T01:18:14;97032.47;;;12.75;53.41
6615;BME280;3343;42.896;23.912;2022-10-19T01:21:02;97036.28;;;12.94;52.78
6615;BME280;3343;42.896;23.912;2022-10-19T01:23:58;97026.88;;;12.63;53.56
6615;BME280;3343;42.896;23.912;2022-10-19T01:29:53;97022.22;;;12.87;52.47
6615;BME280;3343;42.896;23.912;2022-10-19T01:32:23;97022.97;;;12.81;53.10
6615;BME280;3343;42.896;23.912;2022-10-19T01:34:59;97029.75;;;12.90;53.39
6615;BME280;3343;42.896;23.912;2022-10-19T01:37:33;97026.00;;;12.77;53.22
6615;BME280;3343;42.896;23.912;2022-10-19T01:40:06;97020.84;;;12.69;53.12
6615;BME280;3343;42.896;23.912;2022-10-19T01:42:41;97022.91;;;12.74;53.95
6615;BME280;3343;42.896;23.912;2022-10-19T01:45:15;97020.59;;;12.64;54.23
6615;BME280;3343;42.896;23.912;2022-10-19T01:47:47;97012.41;;;12.59;53.85
6615;BME280;3343;42.896;23.912;2022-10-19T01:50:18;97011.34;;;12.75;53.61
6615;BME280;3343;42.896;23.912;2022-10-19T01:52:50;97001.41;;;12.34;54.71
6615;BME280;3343;42.896;23.912;2022-10-19T01:55:18;97009.13;;;12.36;54.86
6615;BME280;3343;42.896;23.912;2022-10-19T01:57:48;97004.00;;;12.49;54.27
6615;BME280;3343;42.896;23.912;2022-10-19T02:00:19;97011.16;;;12.76;53.18
6615;BME280;3343;42.896;23.912;2022-10-19T02:02:50;96995.63;;;12.67;53.68
6615;BME280;3343;42.896;23.912;2022-10-19T02:05:21;96995.25;;;12.70;53.92
6615;BME280;3343;42.896;23.912;2022-10-19T02:07:55;97003.16;;;12.91;53.62
6615;BME280;3343;42.896;23.912;2022-10-19T02:10:24;96994.41;;;12.91;53.67
6615;BME280;3343;42.896;23.912;2022-10-19T02:12:53;96998.28;;;13.37;51.92
6615;BME280;3343;42.896;23.912;2022-10-19T02:15:22;96996.88;;;13.42;51.38
6615;BME280;3343;42.896;23.912;2022-10-19T02:17:53;96994.75;;;13.30;51.17
6615;BME280;3343;42.896;23.912;2022-10-19T02:20:22;96990.75;;;13.13;52.06
6615;BME280;3343;42.896;23.912;2022-10-19T02:22:49;96999.50;;;13.14;51.94
6615;BME280;3343;42.896;23.912;2022-10-19T02:25:16;96988.06;;;12.85;52.31
6615;BME280;3343;42.896;23.912;2022-10-19T02:27:44;96994.09;;;12.79;52.27
6615;BME280;3343;42.896;23.912;2022-10-19T02:30:14;96995.38;;;13.04;51.83
6615;BME280;3343;42.896;23.912;2022-10-19T02:32:44;96994.97;;;13.07;51.86
6615;BME280;3343;42.896;23.912;2022-10-19T02:35:12;96989.44;;;13.02;52.08
6615;BME280;3343;42.896;23.912;2022-10-19T02:37:40;97000.03;;;12.60;54.25
6615;BME280;3343;42.896;23.912;2022-10-19T02:40:08;97000.31;;;12.93;52.15
6615;BME280;3343;42.896;23.912;2022-10-19T02:42:39;96998.81;;;13.05;51.71
6615;BME280;3343;42.896;23.912;2022-10-19T02:45:10;96991.81;;;12.97;51.62
6615;BME280;3343;42.896;23.912;2022-10-19T02:47:44;96990.56;;;13.15;51.04
6615;BME280;3343;42.896;23.912;2022-10-19T02:50:12;96999.16;;;12.74;52.05
6615;BME280;3343;42.896;23.912;2022-10-19T02:52:40;96991.91;;;12.61;52.19
6615;BME280;3343;42.896;23.912;2022-10-19T02:55:07;97001.56;;;12.97;51.54
6615;BME280;3343;42.896;23.912;2022-10-19T02:57:35;96992.63;;;12.98;51.22
6615;BME280;3343;42.896;23.912;2022-10-19T03:00:03;96998.00;;;13.04;50.84
6615;BME280;3343;42.896;23.912;2022-10-19T03:02:31;96985.31;;;12.51;52.42
6615;BME280;3343;42.896;23.912;2022-10-19T03:04:59;96985.75;;;12.75;52.77
6615;BME280;3343;42.896;23.912;2022-10-19T03:07:26;96993.53;;;12.84;51.35
6615;BME280;3343;42.896;23.912;2022-10-19T03:09:53;97002.78;;;12.94;51.01
6615;BME280;3343;42.896;23.912;2022-10-19T03:12:20;96995.66;;;12.95;50.95
6615;BME280;3343;42.896;23.912;2022-10-19T03:14:46;97000.22;;;13.01;50.75
6615;BME280;3343;42.896;23.912;2022-10-19T03:17:13;96995.81;;;12.08;54.76
6615;BME280;3343;42.896;23.912;2022-10-19T03:19:40;97005.78;;;12.12;55.40
6615;BME280;3343;42.896;23.912;2022-10-19T03:22:08;97004.66;;;12.79;53.44
6615;BME280;3343;42.896;23.912;2022-10-19T03:24:35;96997.38;;;12.60;52.87
6615;BME280;3343;42.896;23.912;2022-10-19T03:27:02;96999.09;;;12.67;51.34
6615;BME280;3343;42.896;23.912;2022-10-19T03:29:29;96991.78;;;12.48;52.03
6615;BME280;3343;42.896;23.912;2022-10-19T03:31:56;96995.19;;;12.63;52.29
6615;BME280;3343;42.896;23.912;2022-10-19T03:34:23;96998.66;;;12.64;52.24
6615;BME280;3343;42.896;23.912;2022-10-19T03:36:50;96999.66;;;12.63;51.39
6615;BME280;3343;42.896;23.912;2022-10-19T03:39:18;96998.44;;;12.87;51.83
6615;BME280;3343;42.896;23.912;2022-10-19T03:41:45;96998.91;;;12.69;52.18
6615;BME280;3343;42.896;23.912;2022-10-19T03:44:12;96993.94;;;12.59;51.55
6615;BME280;3343;42.896;23.912;2022-10-19T03:46:39;96995.59;;;12.24;52.56
6615;BME280;3343;42.896;23.912;2022-10-19T03:49:09;96990.97;;;12.48;52.88
6615;BME280;3343;42.896;23.912;2022-10-19T03:51:36;96999.59;;;12.56;52.22
6615;BME280;3343;42.896;23.912;2022-10-19T03:54:04;96987.00;;;12.37;52.65
6615;BME280;3343;42.896;23.912;2022-10-19T03:56:34;96992.53;;;12.42;53.47
6615;BME280;3343;42.896;23.912;2022-10-19T03:59:02;96986.94;;;12.52;52.77
6615;BME280;3343;42.896;23.912;2022-10-19T04:01:31;96987.66;;;12.60;51.94
6615;BME280;3343;42.896;23.912;2022-10-19T04:04:00;96983.38;;;12.59;51.66
6615;BME280;3343;42.896;23.912;2022-10-19T04:06:29;96988.38;;;12.75;51.14
6615;BME280;3343;42.896;23.912;2022-10-19T04:08:57;96979.84;;;12.52;51.67
6615;BME280;3343;42.896;23.912;2022-10-19T04:11:26;96984.63;;;12.63;52.17
6615;BME280;3343;42.896;23.912;2022-10-19T04:13:56;96983.44;;;12.66;50.83
6615;BME280;3343;42.896;23.912;2022-10-19T04:16:24;96973.00;;;12.58;51.06
6615;BME280;3343;42.896;23.912;2022-10-19T04:18:51;96972.69;;;12.46;51.10
6615;BME280;3343;42.896;23.912;2022-10-19T04:21:20;96973.94;;;12.71;50.97
6615;BME280;3343;42.896;23.912;2022-10-19T04:23:48;96964.13;;;12.23;52.36
6615;BME280;3343;42.896;23.912;2022-10-19T04:26:15;96964.75;;;12.25;52.46
6615;BME280;3343;42.896;23.912;2022-10-19T04:28:42;96955.84;;;12.11;52.65
6615;BME280;3343;42.896;23.912;2022-10-19T04:31:11;96959.75;;;11.79;55.10
6615;BME280;3343;42.896;23.912;2022-10-19T04:33:39;96945.47;;;11.88;55.57
6615;BME280;3343;42.896;23.912;2022-10-19T04:36:07;96954.50;;;12.15;53.86
6615;BME280;3343;42.896;23.912;2022-10-19T04:38:34;96955.84;;;12.26;53.01
6615;BME280;3343;42.896;23.912;2022-10-19T04:41:02;96951.00;;;12.29;52.28
6615;BME280;3343;42.896;23.912;2022-10-19T04:43:30;96950.00;;;11.94;53.38
6615;BME280;3343;42.896;23.912;2022-10-19T04:46:01;96945.78;;;12.57;52.10
6615;BME280;3343;42.896;23.912;2022-10-19T04:48:30;96942.13;;;12.58;52.38
6615;BME280;3343;42.896;23.912;2022-10-19T04:50:57;96946.66;;;12.64;50.81
6615;BME280;3343;42.896;23.912;2022-10-19T04:53:24;96947.78;;;12.55;50.46
6615;BME280;3343;42.896;23.912;2022-10-19T04:55:50;96953.69;;;12.57;49.86
6615;BME280;3343;42.896;23.912;2022-10-19T04:58:17;96954.84;;;12.48;50.37
6615;BME280;3343;42.896;23.912;2022-10-19T05:00:44;96950.72;;;12.67;50.05
6615;BME280;3343;42.896;23.912;2022-10-19T05:03:11;96957.66;;;12.47;51.18
6615;BME280;3343;42.896;23.912;2022-10-19T05:05:39;96951.88;;;12.58;51.92
6615;BME280;3343;42.896;23.912;2022-10-19T05:08:06;96957.03;;;12.94;50.88
6615;BME280;3343;42.896;23.912;2022-10-19T05:10:33;96951.88;;;13.07;50.28
6615;BME280;3343;42.896;23.912;2022-10-19T05:13:00;96957.28;;;13.55;49.99
6615;BME280;3343;42.896;23.912;2022-10-19T05:15:28;96952.56;;;14.46;47.32
6615;BME280;3343;42.896;23.912;2022-10-19T05:17:55;96955.38;;;15.50;44.53
6615;BME280;3343;42.896;23.912;2022-10-19T05:20:22;96961.69;;;15.75;42.57
6615;BME280;3343;42.896;23.912;2022-10-19T05:22:51;96954.34;;;16.15;42.67
6615;BME280;3343;42.896;23.912;2022-10-19T05:25:18;96962.94;;;16.55;41.31
6615;BME280;3343;42.896;23.912;2022-10-19T05:27:49;96960.75;;;17.27;39.81
6615;BME280;3343;42.896;23.912;2022-10-19T05:30:17;96955.94;;;17.61;39.62
6615;BME280;3343;42.896;23.912;2022-10-19T05:32:44;96950.13;;;18.19;38.32
6615;BME280;3343;42.896;23.912;2022-10-19T05:35:11;96952.28;;;18.28;37.92
6615;BME280;3343;42.896;23.912;2022-10-19T05:37:37;96941.59;;;18.58;36.97
6615;BME280;3343;42.896;23.912;2022-10-19T05:40:07;96949.28;;;19.20;36.68
6615;BME280;3343;42.896;23.912;2022-10-19T05:42:34;96950.78;;;19.16;36.34
6615;BME280;3343;42.896;23.912;2022-10-19T05:45:02;96950.22;;;19.37;36.31
6615;BME280;3343;42.896;23.912;2022-10-19T05:47:28;96940.22;;;19.09;36.93
6615;BME280;3343;42.896;23.912;2022-10-19T05:49:55;96943.47;;;19.34;36.25
6615;BME280;3343;42.896;23.912;2022-10-19T05:52:22;96942.09;;;19.55;35.92
6615;BME280;3343;42.896;23.912;2022-10-19T05:54:49;96943.66;;;19.91;35.27
6615;BME280;3343;42.896;23.912;2022-10-19T05:57:17;96940.75;;;20.78;34.58
6615;BME280;3343;42.896;23.912;2022-10-19T05:59:44;96943.63;;;21.05;33.81
6615;BME280;3343;42.896;23.912;2022-10-19T06:02:12;96938.41;;;21.49;33.35
6615;BME280;3343;42.896;23.912;2022-10-19T06:04:39;96941.69;;;21.01;33.84
6615;BME280;3343;42.896;23.912;2022-10-19T06:07:06;96944.31;;;20.67;35.03
6615;BME280;3343;42.896;23.912;2022-10-19T06:09:33;96948.91;;;21.00;35.17
6615;BME280;3343;42.896;23.912;2022-10-19T06:12:01;96943.06;;;20.86;34.69
6615;BME280;3343;42.896;23.912;2022-10-19T06:14:29;96949.72;;;21.34;34.80
6615;BME280;3343;42.896;23.912;2022-10-19T06:16:56;96948.25;;;21.43;34.08
6615;BME280;3343;42.896;23.912;2022-10-19T06:19:23;96948.06;;;21.50;34.94
6615;BME280;3343;42.896;23.912;2022-10-19T06:21:50;96954.03;;;21.74;33.36
6615;BME280;3343;42.896;23.912;2022-10-19T06:24:17;96958.81;;;22.10;33.33
6615;BME280;3343;42.896;23.912;2022-10-19T06:26:44;96956.84;;;22.76;32.47
6615;BME280;3343;42.896;23.912;2022-10-19T06:29:11;96953.34;;;23.03;31.48
6615;BME280;3343;42.896;23.912;2022-10-19T06:31:39;96955.31;;;23.49;30.93
6615;BME280;3343;42.896;23.912;2022-10-19T06:34:06;96955.59;;;23.53;31.59
6615;BME280;3343;42.896;23.912;2022-10-19T06:36:33;96946.31;;;23.71;31.42
6615;BME280;3343;42.896;23.912;2022-10-19T06:39:00;96950.84;;;24.23;30.51
6615;BME280;3343;42.896;23.912;2022-10-19T06:41:27;96959.56;;;24.45;29.76
6615;BME280;3343;42.896;23.912;2022-10-19T06:43:54;96950.28;;;24.21;29.94
6615;BME280;3343;42.896;23.912;2022-10-19T06:46:23;96942.25;;;24.26;29.73
6615;BME280;3343;42.896;23.912;2022-10-19T06:48:53;96949.66;;;23.93;30.57
6615;BME280;3343;42.896;23.912;2022-10-19T07:04:39;96943.81;;;23.22;31.94
6615;BME280;3343;42.896;23.912;2022-10-19T07:07:06;96939.34;;;23.75;30.49
6615;BME280;3343;42.896;23.912;2022-10-19T07:09:33;96926.84;;;23.54;30.78
6615;BME280;3343;42.896;23.912;2022-10-19T07:12:00;96933.50;;;23.88;30.87
6615;BME280;3343;42.896;23.912;2022-10-19T07:14:27;96922.47;;;23.85;31.23
6615;BME280;3343;42.896;23.912;2022-10-19T07:16:54;96921.38;;;23.38;30.42
6615;BME280;3343;42.896;23.912;2022-10-19T07:19:24;96917.03;;;23.69;30.80
6615;BME280;3343;42.896;23.912;2022-10-19T07:21:52;96918.56;;;24.23;31.15
6615;BME280;3343;42.896;23.912;2022-10-19T07:24:19;96915.16;;;23.75;31.93
6615;BME280;3343;42.896;23.912;2022-10-19T07:26:46;96918.94;;;24.52;29.76
6615;BME280;3343;42.896;23.912;2022-10-19T07:29:13;96920.34;;;25.00;29.68
6615;BME280;3343;42.896;23.912;2022-10-19T07:31:40;96912.78;;;24.82;29.33
6615;BME280;3343;42.896;23.912;2022-10-19T07:34:10;96914.97;;;25.15;29.12
6615;BME280;3343;42.896;23.912;2022-10-19T07:36:38;96905.22;;;24.43;30.04
6615;BME280;3343;42.896;23.912;2022-10-19T07:39:10;96903.09;;;24.81;30.11
6615;BME280;3343;42.896;23.912;2022-10-19T07:41:38;96900.69;;;25.04;29.71
6615;BME280;3343;42.896;23.912;2022-10-19T07:44:05;96900.13;;;24.87;30.71
6615;BME280;3343;42.896;23.912;2022-10-19T07:46:32;96898.50;;;24.66;31.26
6615;BME280;3343;42.896;23.912;2022-10-19T07:49:03;96885.63;;;25.19;30.22
6615;BME280;3343;42.896;23.912;2022-10-19T07:51:30;96894.75;;;24.87;29.64
6615;BME280;3343;42.896;23.912;2022-10-19T07:53:57;96891.78;;;24.63;29.76
6615;BME280;3343;42.896;23.912;2022-10-19T07:56:26;96886.44;;;25.19;30.56
6615;BME280;3343;42.896;23.912;2022-10-19T07:58:57;96883.19;;;25.17;30.22
6615;BME280;3343;42.896;23.912;2022-10-19T08:01:25;96875.63;;;25.24;30.34
6615;BME280;3343;42.896;23.912;2022-10-19T08:03:54;96848.44;;;25.05;30.11
6615;BME280;3343;42.896;23.912;2022-10-19T08:06:21;96865.84;;;25.54;30.48
6615;BME280;3343;42.896;23.912;2022-10-19T08:08:49;96874.53;;;26.15;29.95
6615;BME280;3343;42.896;23.912;2022-10-19T08:11:19;96872.28;;;26.27;28.84
6615;BME280;3343;42.896;23.912;2022-10-19T08:13:47;96867.56;;;25.19;29.68
6615;BME280;3343;42.896;23.912;2022-10-19T08:16:22;96856.19;;;25.43;30.62
6615;BME280;3343;42.896;23.912;2022-10-19T08:18:50;96865.44;;;25.96;30.90
6615;BME280;3343;42.896;23.912;2022-10-19T08:21:17;96862.72;;;26.50;30.06
6615;BME280;3343;42.896;23.912;2022-10-19T08:23:44;96856.28;;;26.80;29.22
6615;BME280;3343;42.896;23.912;2022-10-19T08:26:11;96859.16;;;26.94;30.34
6615;BME280;3343;42.896;23.912;2022-10-19T08:28:49;96860.56;;;27.44;29.87
6615;BME280;3343;42.896;23.912;2022-10-19T08:31:17;96851.06;;;27.47;29.00
6615;BME280;3343;42.896;23.912;2022-10-19T08:33:45;96838.94;;;27.20;29.45
6615;BME280;3343;42.896;23.912;2022-10-19T08:36:12;96858.38;;;27.70;29.87
6615;BME280;3343;42.896;23.912;2022-10-19T08:38:40;96850.88;;;27.38;29.92
6615;BME280;3343;42.896;23.912;2022-10-19T08:41:27;96854.19;;;27.83;29.24
6615;BME280;3343;42.896;23.912;2022-10-19T08:44:25;96849.84;;;27.34;29.71
6615;BME280;3343;42.896;23.912;2022-10-19T08:47:01;96844.19;;;26.73;31.16
6615;BME280;3343;42.896;23.912;2022-10-19T08:49:30;96825.00;;;27.32;29.79
6615;BME280;3343;42.896;23.912;2022-10-19T08:51:59;96831.91;;;27.43;29.80
6615;BME280;3343;42.896;23.912;2022-10-19T08:54:34;96834.69;;;27.62;29.90
6615;BME280;3343;42.896;23.912;2022-10-19T08:57:08;96835.06;;;27.50;30.25
6615;BME280;3343;42.896;23.912;2022-10-19T08:59:45;96839.09;;;27.53;30.61
6615;BME280;3343;42.896;23.912;2022-10-19T09:02:18;96834.91;;;27.89;29.71
6615;BME280;3343;42.896;23.912;2022-10-19T09:04:51;96836.09;;;28.21;29.32
6615;BME280;3343;42.896;23.912;2022-10-19T09:07:26;96833.81;;;27.90;29.66
6615;BME280;3343;42.896;23.912;2022-10-19T09:09:56;96829.78;;;27.88;30.17
6615;BME280;3343;42.896;23.912;2022-10-19T09:12:34;96832.75;;;28.29;29.37
6615;BME280;3343;42.896;23.912;2022-10-19T09:15:06;96834.41;;;28.06;29.93
6615;BME280;3343;42.896;23.912;2022-10-19T09:17:36;96832.22;;;27.89;29.17
6615;BME280;3343;42.896;23.912;2022-10-19T09:20:14;96831.03;;;28.71;29.39
6615;BME280;3343;42.896;23.912;2022-10-19T09:22:42;96823.72;;;28.71;28.03
6615;BME280;3343;42.896;23.912;2022-10-19T09:25:13;96835.03;;;28.92;28.59
6615;BME280;3343;42.896;23.912;2022-10-19T09:27:41;96822.47;;;28.64;28.28
6615;BME280;3343;42.896;23.912;2022-10-19T09:30:16;96832.25;;;29.25;27.37
6615;BME280;3343;42.896;23.912;2022-10-19T09:32:45;96833.56;;;29.41;27.39
6615;BME280;3343;42.896;23.912;2022-10-19T09:35:24;96831.72;;;29.69;26.01
6615;BME280;3343;42.896;23.912;2022-10-19T09:37:53;96830.06;;;29.40;25.96
6615;BME280;3343;42.896;23.912;2022-10-19T09:40:23;96835.44;;;29.59;25.47
6615;BME280;3343;42.896;23.912;2022-10-19T09:42:51;96825.91;;;29.48;26.23
6615;BME280;3343;42.896;23.912;2022-10-19T09:45:32;96831.28;;;30.03;24.10
6615;BME280;3343;42.896;23.912;2022-10-19T09:48:02;96832.91;;;30.04;24.63
6615;BME280;3343;42.896;23.912;2022-10-19T09:50:30;96817.81;;;29.84;25.30
6615;BME280;3343;42.896;23.912;2022-10-19T09:52:58;96831.50;;;29.79;25.63
6615;BME280;3343;42.896;23.912;2022-10-19T09:55:34;96829.81;;;29.69;24.39
6615;BME280;3343;42.896;23.912;2022-10-19T09:58:04;96827.09;;;29.69;25.70
6615;BME280;3343;42.896;23.912;2022-10-19T10:00:36;96822.66;;;29.87;23.70
6615;BME280;3343;42.896;23.912;2022-10-19T10:03:05;96826.50;;;29.59;23.35
6615;BME280;3343;42.896;23.912;2022-10-19T10:05:34;96818.03;;;30.01;23.53
6615;BME280;3343;42.896;23.912;2022-10-19T10:08:01;96815.38;;;30.10;22.94
6615;BME280;3343;42.896;23.912;2022-10-19T10:10:34;96809.94;;;30.46;21.63
6615;BME280;3343;42.896;23.912;2022-10-19T10:13:02;96794.41;;;29.88;20.97
6615;BME280;3343;42.896;23.912;2022-10-19T10:15:46;96806.31;;;30.15;21.93
6615;BME280;3343;42.896;23.912;2022-10-19T10:18:15;96798.41;;;30.40;19.92
6615;BME280;3343;42.896;23.912;2022-10-19T10:20:59;96801.06;;;30.77;19.52
6615;BME280;3343;42.896;23.912;2022-10-19T10:23:28;96798.03;;;30.78;18.04
6615;BME280;3343;42.896;23.912;2022-10-19T10:25:58;96798.66;;;30.53;18.18
6615;BME280;3343;42.896;23.912;2022-10-19T10:28:26;96789.41;;;29.27;18.92
6615;BME280;3343;42.896;23.912;2022-10-19T10:31:00;96781.59;;;29.53;19.40
6615;BME280;3343;42.896;23.912;2022-10-19T10:33:30;96778.25;;;29.69;18.71
6615;BME280;3343;42.896;23.912;2022-10-19T10:36:01;96783.78;;;28.77;17.74
6615;BME280;3343;42.896;23.912;2022-10-19T10:38:31;96769.19;;;28.59;17.98
6615;BME280;3343;42.896;23.912;2022-10-19T10:41:01;96774.75;;;28.68;18.98
6615;BME280;3343;42.896;23.912;2022-10-19T10:43:35;96772.84;;;29.69;18.17
6615;BME280;3343;42.896;23.912;2022-10-19T10:46:07;96771.66;;;30.34;17.90
6615;BME280;3343;42.896;23.912;2022-10-19T10:48:41;96749.03;;;30.38;17.52
6615;BME280;3343;42.896;23.912;2022-10-19T10:51:18;96736.88;;;30.36;17.63
6615;BME280;3343;42.896;23.912;2022-10-19T10:53:46;96735.31;;;30.21;17.67
6615;BME280;3343;42.896;23.912;2022-10-19T10:56:25;96729.44;;;30.28;17.76
6615;BME280;3343;42.896;23.912;2022-10-19T10:58:56;96736.19;;;30.08;18.79
6615;BME280;3343;42.896;23.912;2022-10-19T11:01:30;96734.81;;;29.83;17.35
6615;BME280;3343;42.896;23.912;2022-10-19T11:04:01;96725.88;;;30.19;17.90
6615;BME280;3343;42.896;23.912;2022-10-19T11:06:33;96723.22;;;30.72;16.74
6615;BME280;3343;42.896;23.912;2022-10-19T11:09:07;96723.09;;;30.32;17.10
6615;BME280;3343;42.896;23.912;2022-10-19T11:11:40;96727.59;;;29.78;18.46
6615;BME280;3343;42.896;23.912;2022-10-19T11:14:29;96721.97;;;30.33;17.41
6615;BME280;3343;42.896;23.912;2022-10-19T11:17:02;96717.81;;;30.81;17.83
6615;BME280;3343;42.896;23.912;2022-10-19T11:19:33;96724.69;;;31.18;17.19
6615;BME280;3343;42.896;23.912;2022-10-19T11:22:09;96718.47;;;31.17;16.31
6615;BME280;3343;42.896;23.912;2022-10-19T11:44:40;96699.34;;;31.00;17.08
6615;BME280;3343;42.896;23.912;2022-10-19T11:47:24;96697.19;;;32.11;16.88
6615;BME280;3343;42.896;23.912;2022-10-19T11:50:02;96692.56;;;31.20;17.47
6615;BME280;3343;42.896;23.912;2022-10-19T11:52:41;96692.94;;;30.96;16.91
6615;BME280;3343;42.896;23.912;2022-10-19T11:55:17;96694.22;;;30.98;17.27
6615;BME280;3343;42.896;23.912;2022-10-19T11:57:52;96683.53;;;31.50;17.11
6615;BME280;3343;42.896;23.912;2022-10-19T12:00:26;96681.28;;;31.44;17.13
6615;BME280;3343;42.896;23.912;2022-10-19T12:03:32;96682.25;;;31.65;17.15
6615;BME280;3343;42.896;23.912;2022-10-19T12:06:10;96674.81;;;30.52;17.93
6615;BME280;3343;42.896;23.912;2022-10-19T12:09:03;96660.34;;;30.34;18.82
6615;BME280;3343;42.896;23.912;2022-10-19T12:11:44;96667.34;;;29.04;19.50
6615;BME280;3343;42.896;23.912;2022-10-19T12:14:16;96680.19;;;29.76;19.61
6615;BME280;3343;42.896;23.912;2022-10-19T12:16:49;96673.66;;;29.13;18.94
6615;BME280;3343;42.896;23.912;2022-10-19T12:19:20;96676.09;;;28.88;19.84
6615;BME280;3343;42.896;23.912;2022-10-19T12:21:49;96674.56;;;29.09;19.58
6615;BME280;3343;42.896;23.912;2022-10-19T12:24:21;96680.00;;;28.95;19.35
6615;BME280;3343;42.896;23.912;2022-10-19T12:26:49;96670.94;;;29.77;18.66
6615;BME280;3343;42.896;23.912;2022-10-19T12:29:21;96669.41;;;30.52;17.96
6615;BME280;3343;42.896;23.912;2022-10-19T12:31:51;96676.59;;;30.87;17.78
6615;BME280;3343;42.896;23.912;2022-10-19T12:34:29;96664.38;;;30.36;18.38
6615;BME280;3343;42.896;23.912;2022-10-19T12:37:01;96664.69;;;30.35;17.96
6615;BME280;3343;42.896;23.912;2022-10-19T12:39:34;96653.63;;;30.09;18.75
6615;BME280;3343;42.896;23.912;2022-10-19T12:42:12;96652.19;;;29.03;18.57
6615;BME280;3343;42.896;23.912;2022-10-19T12:45:15;96648.72;;;29.53;19.18
6615;BME280;3343;42.896;23.912;2022-10-19T12:48:16;96648.63;;;30.87;18.08
6615;BME280;3343;42.896;23.912;2022-10-19T12:51:12;96639.34;;;30.88;18.11
6615;BME280;3343;42.896;23.912;2022-10-19T12:53:41;96635.66;;;30.84;18.09
6615;BME280;3343;42.896;23.912;2022-10-19T12:56:13;96648.31;;;31.45;17.09
6615;BME280;3343;42.896;23.912;2022-10-19T12:58:48;96641.44;;;31.65;16.94
6615;BME280;3343;42.896;23.912;2022-10-19T13:01:19;96630.72;;;31.43;17.16
6615;BME280;3343;42.896;23.912;2022-10-19T13:03:51;96633.88;;;30.39;17.44
6615;BME280;3343;42.896;23.912;2022-10-19T13:06:29;96628.31;;;30.22;18.08
6615;BME280;3343;42.896;23.912;2022-10-19T13:08:58;96632.16;;;30.83;17.40
6615;BME280;3343;42.896;23.912;2022-10-19T13:11:26;96627.97;;;29.93;18.55
6615;BME280;3343;42.896;23.912;2022-10-19T13:13:58;96627.47;;;31.15;17.62
6615;BME280;3343;42.896;23.912;2022-10-19T13:16:38;96637.28;;;31.67;17.36
6615;BME280;3343;42.896;23.912;2022-10-19T13:19:20;96632.44;;;32.08;17.75
6615;BME280;3343;42.896;23.912;2022-10-19T13:21:50;96635.50;;;32.06;16.85
6615;BME280;3343;42.896;23.912;2022-10-19T13:24:27;96632.44;;;32.08;17.49
6615;BME280;3343;42.896;23.912;2022-10-19T13:27:24;96615.00;;;32.00;17.83
6615;BME280;3343;42.896;23.912;2022-10-19T13:29:51;96623.38;;;30.86;18.48
6615;BME280;3343;42.896;23.912;2022-10-19T13:32:45;96635.66;;;32.01;16.65
6615;BME280;3343;42.896;23.912;2022-10-19T13:35:40;96626.22;;;30.41;18.22
6615;BME280;3343;42.896;23.912;2022-10-19T13:38:31;96625.25;;;30.37;19.09
6615;BME280;3343;42.896;23.912;2022-10-19T13:41:04;96625.94;;;29.76;19.55
6615;BME280;3343;42.896;23.912;2022-10-19T13:43:34;96625.25;;;29.93;18.86
6615;BME280;3343;42.896;23.912;2022-10-19T13:46:11;96617.75;;;28.03;20.76
6615;BME280;3343;42.896;23.912;2022-10-19T13:52:01;96618.47;;;27.38;23.43
6615;BME280;3343;42.896;23.912;2022-10-19T13:54:46;96611.31;;;27.28;22.08
6615;BME280;3343;42.896;23.912;2022-10-19T13:57:21;96605.66;;;27.44;22.76
6615;BME280;3343;42.896;23.912;2022-10-19T14:00:16;96602.81;;;27.54;22.11
6615;BME280;3343;42.896;23.912;2022-10-19T14:03:10;96601.94;;;27.77;22.44
6615;BME280;3343;42.896;23.912;2022-10-19T14:06:01;96605.09;;;27.09;22.86
6615;BME280;3343;42.896;23.912;2022-10-19T14:09:04;96599.94;;;26.65;24.23
6615;BME280;3343;42.896;23.912;2022-10-19T14:11:42;96599.03;;;26.99;25.25
6615;BME280;3343;42.896;23.912;2022-10-19T14:14:15;96599.97;;;26.84;25.69